This is the latest recevied weather packets stored in our database for station/object KL7LK-13. If no packets are shown the sender has not sent any weather packets the latest 10 day(s).
| Time | Temp. | Humidity | Pressure | Rain* | Wind** | Luminosity | Snow |
|---|---|---|---|---|---|---|---|
| 1777625627 | 5.56° C | 55% | 1028.2 hPa | - | - | 0 W/m² | - |
| 1777619554 | 5.56° C | 54% | 1028.6 hPa | - | - | 0 W/m² | - |
| 1777618954 | 5.56° C | 53% | 1028.6 hPa | - | - | 0 W/m² | - |
| 1777617838 | 5.56° C | 50% | 1028.7 hPa | - | - | 0 W/m² | - |
| 1777614222 | 6.11° C | 48% | 1028.6 hPa | - | - | 11 W/m² | - |
| 1777609387 | 7.78° C | 45% | 1029.1 hPa | - | - | 42 W/m² | - |
| 1777605171 | 8.89° C | 39% | 1029.7 hPa | - | - | 68 W/m² | - |
| 1777603930 | 9.44° C | 39% | 1029.8 hPa | - | - | 79 W/m² | - |
| 1777602689 | 9.44° C | 37% | 1029.8 hPa | - | - | 99 W/m² | - |
| 1777594382 | 10° C | 35% | 1031.2 hPa | - | - | 167 W/m² | - |
| 1777593762 | 9.44° C | 33% | 1031.4 hPa | - | - | 195 W/m² | - |
| 1777593162 | 9.44° C | 35% | 1031.5 hPa | - | - | 225 W/m² | - |
| 1777590785 | 9.44° C | 35% | 1031.7 hPa | - | - | 246 W/m² | - |
| 1777589546 | 9.44° C | 35% | 1031.8 hPa | - | - | 284 W/m² | - |
| 1777588926 | 9.44° C | 36% | 1031.8 hPa | - | - | 226 W/m² | - |
| 1777584091 | 9.44° C | 38% | 1032.5 hPa | - | - | 335 W/m² | - |
| 1777583596 | 8.89° C | 39% | 1032.5 hPa | - | - | 430 W/m² | - |
| 1777579401 | 8.89° C | 41% | 1033 hPa | - | - | 269 W/m² | - |
| 1777575785 | 7.22° C | 48% | 1033.5 hPa | - | - | 286 W/m² | - |
| 1777570950 | 5.56° C | 51% | 1034 hPa | - | - | 267 W/m² | - |
| 1777568594 | 3.89° C | 56% | 1034.4 hPa | - | - | 147 W/m² | - |
| 1777567975 | 3.33° C | 57% | 1034.4 hPa | - | - | 101 W/m² | - |
| 1777566115 | 2.78° C | 60% | 1034.4 hPa | - | - | 88 W/m² | - |
| 1777565495 | 2.78° C | 58% | 1034.3 hPa | - | - | 68 W/m² | - |
| 1777564419 | 2.22° C | 61% | 1034.3 hPa | - | - | 41 W/m² | - |
* Rain since midnight (hover to see other rain measurements)
** Current wind speed in m/s (hover to see current wind gust speed)